sensor_id;sensor_type;location;lat;lon;timestamp;pressure;altitude;pressure_sealevel;temperature;humidity
73952;BME280;62304;47.662;18.324;2023-07-13T00:01:39;99950.38;;;21.06;100.00
73952;BME280;62304;47.662;18.324;2023-07-13T00:04:42;99937.38;;;20.96;100.00
73952;BME280;62304;47.662;18.324;2023-07-13T00:07:45;99919.69;;;20.96;100.00
73952;BME280;62304;47.662;18.324;2023-07-13T00:10:51;99916.97;;;21.05;100.00
73952;BME280;62304;47.662;18.324;2023-07-13T00:13:59;99928.25;;;21.05;100.00
73952;BME280;62304;47.662;18.324;2023-07-13T00:17:02;99926.69;;;21.16;100.00
73952;BME280;62304;47.662;18.324;2023-07-13T00:20:06;99918.09;;;21.32;99.50
73952;BME280;62304;47.662;18.324;2023-07-13T00:23:10;99927.91;;;21.40;100.00
73952;BME280;62304;47.662;18.324;2023-07-13T00:26:12;99918.53;;;21.43;100.00
73952;BME280;62304;47.662;18.324;2023-07-13T00:29:16;99910.37;;;21.58;100.00
73952;BME280;62304;47.662;18.324;2023-07-13T00:32:19;99908.09;;;21.65;100.00
73952;BME280;62304;47.662;18.324;2023-07-13T00:35:23;99921.91;;;21.63;98.37
73952;BME280;62304;47.662;18.324;2023-07-13T00:38:26;99916.84;;;21.46;99.00
73952;BME280;62304;47.662;18.324;2023-07-13T00:41:31;99908.81;;;21.44;99.74
73952;BME280;62304;47.662;18.324;2023-07-13T00:44:34;99903.75;;;21.52;98.45
73952;BME280;62304;47.662;18.324;2023-07-13T00:47:38;99914.28;;;21.39;100.00
73952;BME280;62304;47.662;18.324;2023-07-13T00:50:42;99895.16;;;21.55;100.00
73952;BME280;62304;47.662;18.324;2023-07-13T00:53:49;99905.66;;;21.55;100.00
73952;BME280;62304;47.662;18.324;2023-07-13T00:56:55;99915.91;;;21.74;100.00
73952;BME280;62304;47.662;18.324;2023-07-13T01:00:02;99925.28;;;21.71;99.80
73952;BME280;62304;47.662;18.324;2023-07-13T01:03:07;99920.56;;;21.68;100.00
73952;BME280;62304;47.662;18.324;2023-07-13T01:06:11;99924.59;;;21.67;99.81
73952;BME280;62304;47.662;18.324;2023-07-13T01:09:15;99932.16;;;21.57;99.65
73952;BME280;62304;47.662;18.324;2023-07-13T01:12:19;99928.31;;;21.64;98.85
73952;BME280;62304;47.662;18.324;2023-07-13T01:15:41;99934.66;;;21.55;98.49
73952;BME280;62304;47.662;18.324;2023-07-13T01:18:47;99923.38;;;21.55;98.50
73952;BME280;62304;47.662;18.324;2023-07-13T01:21:52;99908.28;;;21.37;98.91
73952;BME280;62304;47.662;18.324;2023-07-13T01:24:55;99923.75;;;21.20;99.05
73952;BME280;62304;47.662;18.324;2023-07-13T01:27:58;99932.56;;;21.09;99.79
73952;BME280;62304;47.662;18.324;2023-07-13T01:31:01;99929.06;;;21.18;100.00
73952;BME280;62304;47.662;18.324;2023-07-13T01:34:05;99922.38;;;21.37;100.00
73952;BME280;62304;47.662;18.324;2023-07-13T01:37:10;99927.81;;;21.44;99.12
73952;BME280;62304;47.662;18.324;2023-07-13T01:40:14;99933.09;;;21.29;99.83
73952;BME280;62304;47.662;18.324;2023-07-13T01:43:18;99934.69;;;21.18;99.75
73952;BME280;62304;47.662;18.324;2023-07-13T01:46:22;99930.41;;;21.13;100.00
73952;BME280;62304;47.662;18.324;2023-07-13T01:49:26;99923.41;;;21.18;99.00
73952;BME280;62304;47.662;18.324;2023-07-13T01:52:29;99909.87;;;21.13;100.00
73952;BME280;62304;47.662;18.324;2023-07-13T01:55:34;99909.44;;;21.14;100.00
73952;BME280;62304;47.662;18.324;2023-07-13T01:58:37;99922.84;;;21.23;99.74
73952;BME280;62304;47.662;18.324;2023-07-13T02:01:40;99923.88;;;21.16;99.73
73952;BME280;62304;47.662;18.324;2023-07-13T02:04:44;99918.44;;;20.97;100.00
73952;BME280;62304;47.662;18.324;2023-07-13T02:07:47;99910.00;;;20.97;100.00
73952;BME280;62304;47.662;18.324;2023-07-13T02:10:50;99913.22;;;20.83;100.00
73952;BME280;62304;47.662;18.324;2023-07-13T02:13:53;99921.47;;;21.02;100.00
73952;BME280;62304;47.662;18.324;2023-07-13T02:16:56;99917.16;;;20.85;100.00
73952;BME280;62304;47.662;18.324;2023-07-13T02:19:59;99910.41;;;20.70;100.00
73952;BME280;62304;47.662;18.324;2023-07-13T02:23:02;99901.72;;;20.77;100.00
73952;BME280;62304;47.662;18.324;2023-07-13T02:26:06;99905.88;;;20.73;100.00
73952;BME280;62304;47.662;18.324;2023-07-13T02:29:10;99910.84;;;20.69;100.00
73952;BME280;62304;47.662;18.324;2023-07-13T02:32:13;99895.81;;;20.47;100.00
73952;BME280;62304;47.662;18.324;2023-07-13T02:35:16;99910.47;;;20.54;100.00
73952;BME280;62304;47.662;18.324;2023-07-13T02:38:19;99909.13;;;20.59;100.00
73952;BME280;62304;47.662;18.324;2023-07-13T02:41:24;99907.66;;;20.54;100.00
73952;BME280;62304;47.662;18.324;2023-07-13T02:44:27;99906.19;;;20.62;100.00
73952;BME280;62304;47.662;18.324;2023-07-13T02:47:32;99909.72;;;20.66;100.00
73952;BME280;62304;47.662;18.324;2023-07-13T02:50:35;99904.88;;;20.67;100.00
73952;BME280;62304;47.662;18.324;2023-07-13T02:53:38;99914.22;;;20.64;100.00
73952;BME280;62304;47.662;18.324;2023-07-13T02:56:41;99926.28;;;20.77;100.00
73952;BME280;62304;47.662;18.324;2023-07-13T02:59:46;99940.44;;;20.89;100.00
73952;BME280;62304;47.662;18.324;2023-07-13T03:02:49;99948.09;;;21.01;100.00
73952;BME280;62304;47.662;18.324;2023-07-13T03:05:59;99962.22;;;21.01;100.00
73952;BME280;62304;47.662;18.324;2023-07-13T03:09:05;99957.13;;;21.09;100.00
73952;BME280;62304;47.662;18.324;2023-07-13T03:12:09;99951.06;;;21.10;100.00
73952;BME280;62304;47.662;18.324;2023-07-13T03:15:12;99961.06;;;20.86;100.00
73952;BME280;62304;47.662;18.324;2023-07-13T03:18:15;99973.84;;;21.03;100.00
73952;BME280;62304;47.662;18.324;2023-07-13T03:21:19;99976.66;;;21.03;100.00
73952;BME280;62304;47.662;18.324;2023-07-13T03:24:22;99984.19;;;20.94;100.00
73952;BME280;62304;47.662;18.324;2023-07-13T03:27:26;99986.94;;;20.69;100.00
73952;BME280;62304;47.662;18.324;2023-07-13T03:30:29;100007.91;;;20.68;100.00
73952;BME280;62304;47.662;18.324;2023-07-13T03:33:33;100023.91;;;20.71;100.00
73952;BME280;62304;47.662;18.324;2023-07-13T03:36:37;100025.59;;;20.68;100.00
73952;BME280;62304;47.662;18.324;2023-07-13T03:39:40;100025.69;;;20.65;100.00
73952;BME280;62304;47.662;18.324;2023-07-13T03:42:44;100013.66;;;20.64;100.00
73952;BME280;62304;47.662;18.324;2023-07-13T03:45:49;100034.53;;;20.67;100.00
73952;BME280;62304;47.662;18.324;2023-07-13T03:48:53;100038.56;;;20.66;100.00
73952;BME280;62304;47.662;18.324;2023-07-13T03:51:56;100044.50;;;20.55;100.00
73952;BME280;62304;47.662;18.324;2023-07-13T03:55:00;100038.75;;;20.59;100.00
73952;BME280;62304;47.662;18.324;2023-07-13T03:58:26;100042.47;;;20.56;100.00
73952;BME280;62304;47.662;18.324;2023-07-13T04:01:31;100043.34;;;20.53;100.00
73952;BME280;62304;47.662;18.324;2023-07-13T04:04:36;100047.03;;;20.50;100.00
73952;BME280;62304;47.662;18.324;2023-07-13T04:07:43;100048.56;;;20.54;100.00
73952;BME280;62304;47.662;18.324;2023-07-13T04:10:49;100077.00;;;20.44;100.00
73952;BME280;62304;47.662;18.324;2023-07-13T04:13:52;100089.72;;;20.36;100.00
73952;BME280;62304;47.662;18.324;2023-07-13T04:16:56;100110.22;;;20.37;100.00
73952;BME280;62304;47.662;18.324;2023-07-13T04:19:59;100136.78;;;20.35;100.00
73952;BME280;62304;47.662;18.324;2023-07-13T04:23:03;100161.63;;;20.40;100.00
73952;BME280;62304;47.662;18.324;2023-07-13T04:26:06;100185.22;;;20.30;100.00
73952;BME280;62304;47.662;18.324;2023-07-13T04:29:10;100202.47;;;20.33;100.00
73952;BME280;62304;47.662;18.324;2023-07-13T04:32:13;100225.53;;;20.27;100.00
73952;BME280;62304;47.662;18.324;2023-07-13T04:35:16;100254.47;;;20.12;100.00
73952;BME280;62304;47.662;18.324;2023-07-13T04:38:20;100282.47;;;19.99;100.00
73952;BME280;62304;47.662;18.324;2023-07-13T04:41:24;100308.53;;;19.84;100.00
73952;BME280;62304;47.662;18.324;2023-07-13T04:44:26;100322.56;;;19.68;100.00
73952;BME280;62304;47.662;18.324;2023-07-13T04:47:30;100323.25;;;19.52;100.00
73952;BME280;62304;47.662;18.324;2023-07-13T04:50:36;100328.59;;;19.47;100.00
73952;BME280;62304;47.662;18.324;2023-07-13T04:53:40;100329.50;;;19.41;100.00
73952;BME280;62304;47.662;18.324;2023-07-13T04:56:42;100329.06;;;19.42;100.00
73952;BME280;62304;47.662;18.324;2023-07-13T04:59:48;100316.72;;;19.36;100.00
73952;BME280;62304;47.662;18.324;2023-07-13T05:02:51;100333.72;;;19.29;100.00
73952;BME280;62304;47.662;18.324;2023-07-13T05:06:01;100335.47;;;19.19;100.00
73952;BME280;62304;47.662;18.324;2023-07-13T05:09:04;100325.88;;;19.17;100.00
73952;BME280;62304;47.662;18.324;2023-07-13T05:12:09;100328.75;;;19.13;100.00
73952;BME280;62304;47.662;18.324;2023-07-13T05:15:12;100340.41;;;19.12;100.00
73952;BME280;62304;47.662;18.324;2023-07-13T05:18:15;100345.25;;;19.12;100.00
73952;BME280;62304;47.662;18.324;2023-07-13T05:21:19;100342.88;;;19.10;100.00
73952;BME280;62304;47.662;18.324;2023-07-13T05:24:23;100348.44;;;19.13;100.00
73952;BME280;62304;47.662;18.324;2023-07-13T05:27:27;100340.47;;;19.08;100.00
73952;BME280;62304;47.662;18.324;2023-07-13T05:30:30;100325.94;;;19.13;100.00
73952;BME280;62304;47.662;18.324;2023-07-13T05:33:33;100323.94;;;19.14;100.00
73952;BME280;62304;47.662;18.324;2023-07-13T05:36:37;100311.53;;;19.12;100.00
73952;BME280;62304;47.662;18.324;2023-07-13T05:39:40;100308.78;;;19.08;100.00
73952;BME280;62304;47.662;18.324;2023-07-13T05:42:44;100309.56;;;19.08;100.00
73952;BME280;62304;47.662;18.324;2023-07-13T05:45:48;100286.78;;;19.03;100.00
73952;BME280;62304;47.662;18.324;2023-07-13T05:48:52;100247.50;;;19.00;100.00
73952;BME280;62304;47.662;18.324;2023-07-13T05:51:54;100140.38;;;18.94;100.00
73952;BME280;62304;47.662;18.324;2023-07-13T05:54:58;99883.72;;;18.81;100.00
73952;BME280;62304;47.662;18.324;2023-07-13T05:58:01;99674.56;;;18.66;100.00
73952;BME280;62304;47.662;18.324;2023-07-13T06:01:10;99506.06;;;18.50;100.00
73952;BME280;62304;47.662;18.324;2023-07-13T06:04:14;99497.19;;;18.52;100.00
73952;BME280;62304;47.662;18.324;2023-07-13T06:07:17;99515.31;;;18.63;100.00
73952;BME280;62304;47.662;18.324;2023-07-13T06:10:20;99554.03;;;18.84;100.00
73952;BME280;62304;47.662;18.324;2023-07-13T06:13:25;99599.66;;;19.04;100.00
73952;BME280;62304;47.662;18.324;2023-07-13T06:16:28;99663.75;;;19.25;100.00
73952;BME280;62304;47.662;18.324;2023-07-13T06:19:31;99721.84;;;19.44;100.00
73952;BME280;62304;47.662;18.324;2023-07-13T06:22:35;99841.41;;;19.64;100.00
73952;BME280;62304;47.662;18.324;2023-07-13T06:25:37;99933.37;;;19.83;100.00
73952;BME280;62304;47.662;18.324;2023-07-13T06:28:41;99974.09;;;20.11;100.00
73952;BME280;62304;47.662;18.324;2023-07-13T06:31:44;99998.03;;;20.19;100.00
73952;BME280;62304;47.662;18.324;2023-07-13T06:34:47;100027.56;;;20.27;100.00
73952;BME280;62304;47.662;18.324;2023-07-13T06:37:50;100068.22;;;20.42;100.00
73952;BME280;62304;47.662;18.324;2023-07-13T06:40:53;100084.28;;;20.57;100.00
73952;BME280;62304;47.662;18.324;2023-07-13T06:43:56;100106.16;;;20.82;100.00
73952;BME280;62304;47.662;18.324;2023-07-13T06:47:00;100121.38;;;21.00;100.00
73952;BME280;62304;47.662;18.324;2023-07-13T06:50:03;100121.91;;;21.24;100.00
73952;BME280;62304;47.662;18.324;2023-07-13T06:53:07;100117.22;;;21.58;100.00
73952;BME280;62304;47.662;18.324;2023-07-13T06:56:10;100123.81;;;21.68;100.00
73952;BME280;62304;47.662;18.324;2023-07-13T06:59:14;100125.06;;;22.04;100.00
73952;BME280;62304;47.662;18.324;2023-07-13T07:02:17;100131.22;;;22.49;99.80
73952;BME280;62304;47.662;18.324;2023-07-13T07:05:20;100135.03;;;22.68;98.35
73952;BME280;62304;47.662;18.324;2023-07-13T07:08:24;100134.00;;;22.74;96.47
73952;BME280;62304;47.662;18.324;2023-07-13T07:11:27;100137.44;;;22.57;96.93
73952;BME280;62304;47.662;18.324;2023-07-13T07:14:31;100146.44;;;22.77;96.35
73952;BME280;62304;47.662;18.324;2023-07-13T07:17:34;100151.34;;;23.41;93.97
73952;BME280;62304;47.662;18.324;2023-07-13T07:20:37;100153.75;;;23.94;89.71
73952;BME280;62304;47.662;18.324;2023-07-13T07:23:42;100151.12;;;24.09;87.61
73952;BME280;62304;47.662;18.324;2023-07-13T07:26:45;100157.47;;;24.61;87.08
73952;BME280;62304;47.662;18.324;2023-07-13T07:29:52;100162.81;;;24.68;86.34
73952;BME280;62304;47.662;18.324;2023-07-13T07:33:15;100164.91;;;25.04;82.16
73952;BME280;62304;47.662;18.324;2023-07-13T07:36:19;100157.66;;;25.21;81.06
73952;BME280;62304;47.662;18.324;2023-07-13T07:39:25;100160.47;;;25.12;80.24
73952;BME280;62304;47.662;18.324;2023-07-13T07:42:28;100150.91;;;25.27;78.11
73952;BME280;62304;47.662;18.324;2023-07-13T07:45:31;100159.63;;;25.83;78.64
73952;BME280;62304;47.662;18.324;2023-07-13T07:48:35;100157.22;;;26.32;76.76
73952;BME280;62304;47.662;18.324;2023-07-13T07:51:41;100156.75;;;26.34;75.60
73952;BME280;62304;47.662;18.324;2023-07-13T07:54:44;100157.97;;;26.09;72.31
73952;BME280;62304;47.662;18.324;2023-07-13T07:57:50;100147.72;;;26.35;73.03
73952;BME280;62304;47.662;18.324;2023-07-13T08:01:02;100145.84;;;26.32;73.03
73952;BME280;62304;47.662;18.324;2023-07-13T08:04:09;100143.25;;;26.43;71.18
73952;BME280;62304;47.662;18.324;2023-07-13T08:07:32;100144.28;;;26.31;70.36
73952;BME280;62304;47.662;18.324;2023-07-13T08:10:36;100145.22;;;26.61;69.09
73952;BME280;62304;47.662;18.324;2023-07-13T08:13:39;100135.69;;;26.73;68.24
73952;BME280;62304;47.662;18.324;2023-07-13T08:16:43;100135.75;;;27.02;67.69
73952;BME280;62304;47.662;18.324;2023-07-13T08:19:46;100136.41;;;27.20;68.48
73952;BME280;62304;47.662;18.324;2023-07-13T08:22:49;100142.97;;;27.79;66.37
73952;BME280;62304;47.662;18.324;2023-07-13T08:25:53;100135.97;;;27.94;63.89
73952;BME280;62304;47.662;18.324;2023-07-13T08:28:56;100135.50;;;27.81;65.09
73952;BME280;62304;47.662;18.324;2023-07-13T08:32:00;100129.47;;;28.28;63.59
73952;BME280;62304;47.662;18.324;2023-07-13T08:35:05;100120.72;;;28.66;62.57
73952;BME280;62304;47.662;18.324;2023-07-13T08:38:08;100125.66;;;29.06;62.63
73952;BME280;62304;47.662;18.324;2023-07-13T08:41:14;100127.63;;;29.20;60.37
73952;BME280;62304;47.662;18.324;2023-07-13T08:47:54;100131.81;;;28.99;58.14
73952;BME280;62304;47.662;18.324;2023-07-13T08:51:04;100133.16;;;29.49;57.78
73952;BME280;62304;47.662;18.324;2023-07-13T08:57:26;100137.66;;;29.10;58.29
73952;BME280;62304;47.662;18.324;2023-07-13T09:01:20;100141.19;;;29.25;56.58
73952;BME280;62304;47.662;18.324;2023-07-13T09:04:14;100137.88;;;29.06;57.28
73952;BME280;62304;47.662;18.324;2023-07-13T09:10:30;100123.81;;;28.83;57.91
73952;BME280;62304;47.662;18.324;2023-07-13T09:13:45;100125.41;;;29.29;56.05
73952;BME280;62304;47.662;18.324;2023-07-13T09:16:51;100128.56;;;29.57;56.62
73952;BME280;62304;47.662;18.324;2023-07-13T09:20:04;100114.28;;;29.57;55.66
73952;BME280;62304;47.662;18.324;2023-07-13T09:23:14;100117.16;;;29.88;55.14
73952;BME280;62304;47.662;18.324;2023-07-13T09:26:20;100103.72;;;30.30;53.22
73952;BME280;62304;47.662;18.324;2023-07-13T09:29:29;100115.34;;;30.63;52.39
73952;BME280;62304;47.662;18.324;2023-07-13T09:32:36;100112.97;;;30.56;51.01
73952;BME280;62304;47.662;18.324;2023-07-13T09:35:41;100113.72;;;30.51;53.47
73952;BME280;62304;47.662;18.324;2023-07-13T09:38:45;100115.00;;;31.03;51.64
73952;BME280;62304;47.662;18.324;2023-07-13T09:41:55;100112.66;;;30.91;51.80
73952;BME280;62304;47.662;18.324;2023-07-13T09:45:02;100110.28;;;30.95;51.32
73952;BME280;62304;47.662;18.324;2023-07-13T09:48:16;100126.69;;;30.89;50.46
73952;BME280;62304;47.662;18.324;2023-07-13T09:51:20;100117.25;;;30.72;49.80
73952;BME280;62304;47.662;18.324;2023-07-13T09:54:24;100123.22;;;30.68;49.50
73952;BME280;62304;47.662;18.324;2023-07-13T09:57:28;100124.81;;;30.75;49.29
73952;BME280;62304;47.662;18.324;2023-07-13T10:01:12;100129.91;;;31.13;48.13
73952;BME280;62304;47.662;18.324;2023-07-13T10:04:20;100129.22;;;31.45;49.11
73952;BME280;62304;47.662;18.324;2023-07-13T10:07:23;100125.91;;;31.74;48.03
73952;BME280;62304;47.662;18.324;2023-07-13T10:10:32;100127.63;;;31.28;48.85
73952;BME280;62304;47.662;18.324;2023-07-13T10:13:39;100137.12;;;31.78;47.58
73952;BME280;62304;47.662;18.324;2023-07-13T10:16:45;100141.81;;;31.92;47.37
73952;BME280;62304;47.662;18.324;2023-07-13T10:19:48;100136.81;;;31.65;48.08
73952;BME280;62304;47.662;18.324;2023-07-13T10:23:05;100142.59;;;32.31;46.52
73952;BME280;62304;47.662;18.324;2023-07-13T10:26:18;100133.22;;;31.81;46.66
73952;BME280;62304;47.662;18.324;2023-07-13T10:29:26;100143.62;;;32.17;45.94
73952;BME280;62304;47.662;18.324;2023-07-13T10:32:31;100147.84;;;32.32;45.51
73952;BME280;62304;47.662;18.324;2023-07-13T10:35:34;100129.28;;;32.22;46.06
73952;BME280;62304;47.662;18.324;2023-07-13T10:38:38;100130.59;;;31.83;47.48
73952;BME280;62304;47.662;18.324;2023-07-13T10:41:42;100140.25;;;32.24;45.75
73952;BME280;62304;47.662;18.324;2023-07-13T10:44:48;100162.37;;;32.73;45.32
73952;BME280;62304;47.662;18.324;2023-07-13T10:47:53;100141.28;;;32.32;45.80
73952;BME280;62304;47.662;18.324;2023-07-13T10:50:58;100153.25;;;32.58;44.14
73952;BME280;62304;47.662;18.324;2023-07-13T10:54:12;100144.97;;;31.99;43.46
73952;BME280;62304;47.662;18.324;2023-07-13T10:57:22;100133.22;;;32.14;43.58
73952;BME280;62304;47.662;18.324;2023-07-13T11:00:26;100136.84;;;31.81;45.07
73952;BME280;62304;47.662;18.324;2023-07-13T11:03:31;100127.47;;;31.81;45.25
73952;BME280;62304;47.662;18.324;2023-07-13T11:06:40;100120.94;;;30.89;46.21
73952;BME280;62304;47.662;18.324;2023-07-13T11:09:49;100126.50;;;30.14;48.37
73952;BME280;62304;47.662;18.324;2023-07-13T11:12:54;100133.47;;;30.86;46.67
73952;BME280;62304;47.662;18.324;2023-07-13T11:15:57;100123.84;;;31.00;47.04
73952;BME280;62304;47.662;18.324;2023-07-13T11:22:11;100146.53;;;30.56;48.33
73952;BME280;62304;47.662;18.324;2023-07-13T11:25:32;100148.09;;;31.96;46.69
73952;BME280;62304;47.662;18.324;2023-07-13T11:28:37;100147.97;;;31.35;46.46
73952;BME280;62304;47.662;18.324;2023-07-13T11:31:42;100135.37;;;30.58;49.20
73952;BME280;62304;47.662;18.324;2023-07-13T11:34:47;100120.62;;;31.34;47.21
73952;BME280;62304;47.662;18.324;2023-07-13T11:37:51;100122.44;;;31.32;47.72
73952;BME280;62304;47.662;18.324;2023-07-13T11:40:55;100119.03;;;31.28;47.67
73952;BME280;62304;47.662;18.324;2023-07-13T11:44:17;100131.34;;;30.81;49.00
73952;BME280;62304;47.662;18.324;2023-07-13T11:47:22;100124.56;;;30.84;48.81
73952;BME280;62304;47.662;18.324;2023-07-13T11:50:26;100109.84;;;31.18;47.96
73952;BME280;62304;47.662;18.324;2023-07-13T11:53:35;100103.69;;;31.58;47.17
73952;BME280;62304;47.662;18.324;2023-07-13T11:56:40;100098.00;;;31.80;46.34
73952;BME280;62304;47.662;18.324;2023-07-13T11:59:43;100106.97;;;31.07;47.82
73952;BME280;62304;47.662;18.324;2023-07-13T12:02:51;100097.50;;;31.98;45.67
73952;BME280;62304;47.662;18.324;2023-07-13T12:05:57;100103.72;;;31.91;45.56
73952;BME280;62304;47.662;18.324;2023-07-13T12:09:03;100100.59;;;31.67;45.33
73952;BME280;62304;47.662;18.324;2023-07-13T12:12:18;100096.41;;;31.41;46.17
73952;BME280;62304;47.662;18.324;2023-07-13T12:15:23;100108.78;;;31.05;47.67
73952;BME280;62304;47.662;18.324;2023-07-13T12:18:31;100095.59;;;30.65;49.02
73952;BME280;62304;47.662;18.324;2023-07-13T12:21:39;100089.91;;;32.06;46.07
73952;BME280;62304;47.662;18.324;2023-07-13T12:24:43;100070.69;;;32.69;44.71
73952;BME280;62304;47.662;18.324;2023-07-13T12:27:48;100071.53;;;32.59;44.24
73952;BME280;62304;47.662;18.324;2023-07-13T12:30:57;100089.91;;;32.12;43.01
73952;BME280;62304;47.662;18.324;2023-07-13T12:34:09;100076.34;;;31.52;46.11
73952;BME280;62304;47.662;18.324;2023-07-13T12:37:16;100064.22;;;31.04;47.19
73952;BME280;62304;47.662;18.324;2023-07-13T12:40:21;100069.03;;;31.45;46.02
73952;BME280;62304;47.662;18.324;2023-07-13T12:43:31;100070.31;;;31.33;45.76
73952;BME280;62304;47.662;18.324;2023-07-13T12:46:36;100072.69;;;32.01;45.01
73952;BME280;62304;47.662;18.324;2023-07-13T12:49:54;100066.56;;;30.94;46.44
73952;BME280;62304;47.662;18.324;2023-07-13T12:53:02;100056.91;;;30.92;47.15
73952;BME280;62304;47.662;18.324;2023-07-13T12:56:18;100048.66;;;31.27;45.73
73952;BME280;62304;47.662;18.324;2023-07-13T12:59:23;100049.25;;;31.86;43.76
73952;BME280;62304;47.662;18.324;2023-07-13T13:02:34;100037.72;;;31.58;44.91
73952;BME280;62304;47.662;18.324;2023-07-13T13:05:38;100035.06;;;31.05;46.20
73952;BME280;62304;47.662;18.324;2023-07-13T13:08:41;100030.34;;;30.86;45.64
73952;BME280;62304;47.662;18.324;2023-07-13T13:11:46;100035.50;;;30.71;46.40
73952;BME280;62304;47.662;18.324;2023-07-13T13:14:49;100035.12;;;30.52;46.55
73952;BME280;62304;47.662;18.324;2023-07-13T13:17:55;100032.09;;;30.19;46.89
73952;BME280;62304;47.662;18.324;2023-07-13T13:21:01;100034.06;;;30.44;46.32
73952;BME280;62304;47.662;18.324;2023-07-13T13:24:16;100038.31;;;30.65;46.10
73952;BME280;62304;47.662;18.324;2023-07-13T13:27:21;100040.78;;;31.00;45.89
73952;BME280;62304;47.662;18.324;2023-07-13T13:30:25;100034.22;;;30.77;45.86
73952;BME280;62304;47.662;18.324;2023-07-13T13:33:28;100042.16;;;30.57;45.70
73952;BME280;62304;47.662;18.324;2023-07-13T13:36:31;100046.72;;;30.80;45.53
73952;BME280;62304;47.662;18.324;2023-07-13T13:39:36;100042.88;;;31.05;45.19
73952;BME280;62304;47.662;18.324;2023-07-13T13:42:39;100037.91;;;31.00;45.12
73952;BME280;62304;47.662;18.324;2023-07-13T13:45:43;100032.47;;;31.18;44.72
73952;BME280;62304;47.662;18.324;2023-07-13T13:48:46;100036.41;;;31.26;44.86
73952;BME280;62304;47.662;18.324;2023-07-13T13:51:50;100039.47;;;31.01;44.54
73952;BME280;62304;47.662;18.324;2023-07-13T13:54:53;100042.78;;;30.72;45.42
73952;BME280;62304;47.662;18.324;2023-07-13T13:57:58;100032.72;;;30.40;46.14
73952;BME280;62304;47.662;18.324;2023-07-13T14:01:02;100030.56;;;30.24;46.28
73952;BME280;62304;47.662;18.324;2023-07-13T14:04:06;100046.56;;;30.05;46.42
73952;BME280;62304;47.662;18.324;2023-07-13T14:07:10;100042.16;;;29.73;46.38
73952;BME280;62304;47.662;18.324;2023-07-13T14:10:18;100037.84;;;29.88;46.81
73952;BME280;62304;47.662;18.324;2023-07-13T14:13:43;100041.75;;;29.91;46.54
73952;BME280;62304;47.662;18.324;2023-07-13T14:16:51;100042.16;;;29.73;47.99
73952;BME280;62304;47.662;18.324;2023-07-13T14:19:58;100062.25;;;29.84;46.78
73952;BME280;62304;47.662;18.324;2023-07-13T14:23:01;100062.66;;;29.66;46.86
73952;BME280;62304;47.662;18.324;2023-07-13T14:26:10;100065.50;;;29.40;47.70
73952;BME280;62304;47.662;18.324;2023-07-13T14:29:16;100078.91;;;29.29;46.65
73952;BME280;62304;47.662;18.324;2023-07-13T14:32:25;100070.56;;;29.25;47.51
73952;BME280;62304;47.662;18.324;2023-07-13T14:35:28;100058.13;;;29.28;48.16
73952;BME280;62304;47.662;18.324;2023-07-13T14:38:32;100069.50;;;29.23;49.38
73952;BME280;62304;47.662;18.324;2023-07-13T14:41:35;100060.69;;;29.26;48.49
73952;BME280;62304;47.662;18.324;2023-07-13T14:44:39;100066.50;;;29.37;48.48
73952;BME280;62304;47.662;18.324;2023-07-13T14:47:44;100069.75;;;29.25;48.92
73952;BME280;62304;47.662;18.324;2023-07-13T14:50:53;100071.84;;;29.24;49.72
73952;BME280;62304;47.662;18.324;2023-07-13T14:54:01;100073.97;;;29.29;49.23
73952;BME280;62304;47.662;18.324;2023-07-13T14:57:05;100087.50;;;29.09;51.11
73952;BME280;62304;47.662;18.324;2023-07-13T15:00:17;100084.22;;;29.16;50.35
73952;BME280;62304;47.662;18.324;2023-07-13T15:03:23;100085.94;;;29.08;51.29
73952;BME280;62304;47.662;18.324;2023-07-13T15:06:28;100077.81;;;29.01;52.08
73952;BME280;62304;47.662;18.324;2023-07-13T15:09:31;100075.59;;;29.10;51.20
73952;BME280;62304;47.662;18.324;2023-07-13T15:12:34;100070.06;;;29.01;51.09
73952;BME280;62304;47.662;18.324;2023-07-13T15:15:40;100065.47;;;29.09;51.28
73952;BME280;62304;47.662;18.324;2023-07-13T15:18:46;100062.25;;;29.02;52.01
73952;BME280;62304;47.662;18.324;2023-07-13T15:21:49;100065.84;;;28.97;51.73
73952;BME280;62304;47.662;18.324;2023-07-13T15:24:54;100068.53;;;28.86;53.92
73952;BME280;62304;47.662;18.324;2023-07-13T15:28:02;100065.13;;;28.82;53.83
73952;BME280;62304;47.662;18.324;2023-07-13T15:34:24;100063.75;;;28.77;54.61
73952;BME280;62304;47.662;18.324;2023-07-13T15:37:29;100055.28;;;28.63;56.15
73952;BME280;62304;47.662;18.324;2023-07-13T15:40:32;100052.88;;;28.56;56.02
73952;BME280;62304;47.662;18.324;2023-07-13T15:43:36;100043.47;;;28.50;56.07
73952;BME280;62304;47.662;18.324;2023-07-13T15:46:39;100037.16;;;28.46;56.58
73952;BME280;62304;47.662;18.324;2023-07-13T15:49:43;100034.84;;;28.30;56.92
73952;BME280;62304;47.662;18.324;2023-07-13T15:52:49;100045.19;;;28.07;57.86
73952;BME280;62304;47.662;18.324;2023-07-13T15:55:53;100046.69;;;27.88;58.55
73952;BME280;62304;47.662;18.324;2023-07-13T15:58:56;100055.84;;;27.92;58.31
73952;BME280;62304;47.662;18.324;2023-07-13T16:02:00;100065.50;;;27.80;58.62
73952;BME280;62304;47.662;18.324;2023-07-13T16:05:04;100079.03;;;27.71;59.12
73952;BME280;62304;47.662;18.324;2023-07-13T16:08:27;100071.37;;;27.62;58.74
73952;BME280;62304;47.662;18.324;2023-07-13T16:11:38;100079.47;;;27.49;58.77